sensor_id;sensor_type;location;lat;lon;timestamp;pressure;altitude;pressure_sealevel;temperature;humidity
64115;BME280;62188;35.640;139.748;2024-01-15T00:02:16;101003.57;;;8.48;29.47
64115;BME280;62188;35.640;139.748;2024-01-15T00:04:42;101018.06;;;8.18;29.76
64115;BME280;62188;35.640;139.748;2024-01-15T00:07:07;101010.51;;;8.43;29.56
64115;BME280;62188;35.640;139.748;2024-01-15T00:09:33;100995.97;;;9.07;29.21
64115;BME280;62188;35.640;139.748;2024-01-15T00:12:00;100987.83;;;9.63;28.57
64115;BME280;62188;35.640;139.748;2024-01-15T00:14:24;100981.70;;;10.30;28.07
64115;BME280;62188;35.640;139.748;2024-01-15T00:16:50;100968.18;;;9.75;27.62
64115;BME280;62188;35.640;139.748;2024-01-15T00:19:15;100967.78;;;10.41;27.74
64115;BME280;62188;35.640;139.748;2024-01-15T00:21:41;100982.61;;;10.38;27.49
64115;BME280;62188;35.640;139.748;2024-01-15T00:24:07;100993.84;;;11.12;27.12
64115;BME280;62188;35.640;139.748;2024-01-15T00:26:32;100984.91;;;10.15;26.86
64115;BME280;62188;35.640;139.748;2024-01-15T00:28:58;100997.33;;;10.77;26.69
64115;BME280;62188;35.640;139.748;2024-01-15T00:31:25;100994.05;;;10.64;26.70
64115;BME280;62188;35.640;139.748;2024-01-15T00:33:49;100993.53;;;10.83;26.61
64115;BME280;62188;35.640;139.748;2024-01-15T00:36:15;100987.94;;;10.51;26.37
64115;BME280;62188;35.640;139.748;2024-01-15T00:38:40;101000.43;;;10.91;26.16
64115;BME280;62188;35.640;139.748;2024-01-15T00:41:07;100982.41;;;11.65;26.32
64115;BME280;62188;35.640;139.748;2024-01-15T00:43:33;100985.41;;;11.01;25.84
64115;BME280;62188;35.640;139.748;2024-01-15T00:45:57;100971.38;;;11.28;25.53
64115;BME280;62188;35.640;139.748;2024-01-15T00:48:24;100970.79;;;10.96;25.35
64115;BME280;62188;35.640;139.748;2024-01-15T00:50:49;100968.06;;;11.93;25.07
64115;BME280;62188;35.640;139.748;2024-01-15T00:53:17;100956.93;;;12.23;24.83
64115;BME280;62188;35.640;139.748;2024-01-15T00:55:41;100944.81;;;12.50;23.94
64115;BME280;62188;35.640;139.748;2024-01-15T00:58:05;100948.73;;;12.52;24.17
64115;BME280;62188;35.640;139.748;2024-01-15T01:00:32;100941.16;;;11.64;24.13
64115;BME280;62188;35.640;139.748;2024-01-15T01:02:57;100938.71;;;11.32;24.50
64115;BME280;62188;35.640;139.748;2024-01-15T01:05:24;100935.91;;;12.51;24.19
64115;BME280;62188;35.640;139.748;2024-01-15T01:07:49;100929.04;;;12.77;23.88
64115;BME280;62188;35.640;139.748;2024-01-15T01:10:15;100934.00;;;12.21;23.65
64115;BME280;62188;35.640;139.748;2024-01-15T01:12:40;100929.39;;;11.51;24.04
64115;BME280;62188;35.640;139.748;2024-01-15T01:15:06;100934.15;;;11.64;24.30
64115;BME280;62188;35.640;139.748;2024-01-15T01:17:32;100936.44;;;11.20;24.35
64115;BME280;62188;35.640;139.748;2024-01-15T01:19:57;100934.48;;;12.01;24.29
64115;BME280;62188;35.640;139.748;2024-01-15T01:22:22;100941.71;;;12.09;24.62
64115;BME280;62188;35.640;139.748;2024-01-15T01:24:48;100934.98;;;13.21;24.23
64115;BME280;62188;35.640;139.748;2024-01-15T01:27:14;100928.91;;;13.53;23.67
64115;BME280;62188;35.640;139.748;2024-01-15T01:29:39;100922.07;;;14.30;22.48
64115;BME280;62188;35.640;139.748;2024-01-15T01:32:04;100919.52;;;15.15;22.13
64115;BME280;62188;35.640;139.748;2024-01-15T01:34:32;100918.48;;;15.47;21.80
64115;BME280;62188;35.640;139.748;2024-01-15T01:36:57;100911.63;;;15.12;21.35
64115;BME280;62188;35.640;139.748;2024-01-15T01:39:21;100906.52;;;14.84;21.24
64115;BME280;62188;35.640;139.748;2024-01-15T01:41:47;100910.99;;;15.59;21.32
64115;BME280;62188;35.640;139.748;2024-01-15T01:44:13;100904.13;;;15.93;21.25
64115;BME280;62188;35.640;139.748;2024-01-15T01:46:38;100895.85;;;16.45;20.29
64115;BME280;62188;35.640;139.748;2024-01-15T01:49:03;100891.40;;;14.36;20.71
64115;BME280;62188;35.640;139.748;2024-01-15T01:51:29;100885.74;;;15.01;21.03
64115;BME280;62188;35.640;139.748;2024-01-15T01:53:53;100877.67;;;14.00;21.24
64115;BME280;62188;35.640;139.748;2024-01-15T01:56:21;100880.98;;;14.63;21.23
64115;BME280;62188;35.640;139.748;2024-01-15T01:58:46;100870.58;;;13.98;20.91
64115;BME280;62188;35.640;139.748;2024-01-15T02:01:12;100869.26;;;14.15;20.83
64115;BME280;62188;35.640;139.748;2024-01-15T02:03:36;100870.18;;;14.78;20.81
64115;BME280;62188;35.640;139.748;2024-01-15T02:06:01;100853.70;;;14.47;20.50
64115;BME280;62188;35.640;139.748;2024-01-15T02:08:27;100848.38;;;14.58;20.91
64115;BME280;62188;35.640;139.748;2024-01-15T02:10:52;100851.81;;;13.97;20.59
64115;BME280;62188;35.640;139.748;2024-01-15T02:13:20;100860.08;;;14.14;21.07
64115;BME280;62188;35.640;139.748;2024-01-15T02:15:45;100848.77;;;14.80;20.64
64115;BME280;62188;35.640;139.748;2024-01-15T02:18:11;100844.25;;;14.64;20.30
64115;BME280;62188;35.640;139.748;2024-01-15T02:20:34;100842.76;;;14.96;19.77
64115;BME280;62188;35.640;139.748;2024-01-15T02:23:11;100839.92;;;15.28;19.91
64115;BME280;62188;35.640;139.748;2024-01-15T02:25:26;100838.18;;;15.94;20.06
64115;BME280;62188;35.640;139.748;2024-01-15T02:27:52;100832.06;;;16.35;19.29
64115;BME280;62188;35.640;139.748;2024-01-15T02:30:18;100820.95;;;16.49;19.05
64115;BME280;62188;35.640;139.748;2024-01-15T02:32:42;100819.98;;;15.61;18.97
64115;BME280;62188;35.640;139.748;2024-01-15T02:35:11;100813.58;;;15.86;19.80
64115;BME280;62188;35.640;139.748;2024-01-15T02:37:43;100812.69;;;16.42;19.09
64115;BME280;62188;35.640;139.748;2024-01-15T02:39:59;100820.57;;;16.16;18.25
64115;BME280;62188;35.640;139.748;2024-01-15T02:42:26;100812.20;;;15.91;18.27
64115;BME280;62188;35.640;139.748;2024-01-15T02:44:50;100801.51;;;14.29;18.90
64115;BME280;62188;35.640;139.748;2024-01-15T02:47:15;100805.54;;;14.87;19.30
64115;BME280;62188;35.640;139.748;2024-01-15T02:49:41;100804.40;;;15.89;19.35
64115;BME280;62188;35.640;139.748;2024-01-15T02:52:07;100800.33;;;16.64;18.77
64115;BME280;62188;35.640;139.748;2024-01-15T02:54:31;100801.54;;;16.06;18.54
64115;BME280;62188;35.640;139.748;2024-01-15T02:56:58;100798.52;;;15.94;18.34
64115;BME280;62188;35.640;139.748;2024-01-15T02:59:22;100803.86;;;15.65;18.76
64115;BME280;62188;35.640;139.748;2024-01-15T03:01:48;100785.30;;;15.53;18.32
64115;BME280;62188;35.640;139.748;2024-01-15T03:04:13;100779.82;;;13.98;19.31
64115;BME280;62188;35.640;139.748;2024-01-15T03:06:40;100777.87;;;15.84;18.91
64115;BME280;62188;35.640;139.748;2024-01-15T03:09:05;100770.59;;;16.97;17.85
64115;BME280;62188;35.640;139.748;2024-01-15T03:11:37;100761.76;;;17.09;17.81
64115;BME280;62188;35.640;139.748;2024-01-15T03:13:56;100764.94;;;17.22;17.77
64115;BME280;62188;35.640;139.748;2024-01-15T03:16:22;100766.18;;;17.83;17.10
64115;BME280;62188;35.640;139.748;2024-01-15T03:18:47;100758.15;;;17.62;16.55
64115;BME280;62188;35.640;139.748;2024-01-15T03:21:12;100753.28;;;16.64;17.13
64115;BME280;62188;35.640;139.748;2024-01-15T03:23:38;100758.08;;;17.81;17.30
64115;BME280;62188;35.640;139.748;2024-01-15T03:26:03;100753.25;;;17.67;16.77
64115;BME280;62188;35.640;139.748;2024-01-15T03:28:28;100744.69;;;18.36;16.50
64115;BME280;62188;35.640;139.748;2024-01-15T03:30:54;100738.35;;;17.97;16.75
64115;BME280;62188;35.640;139.748;2024-01-15T03:33:20;100736.57;;;18.28;16.06
64115;BME280;62188;35.640;139.748;2024-01-15T03:35:45;100736.84;;;18.16;16.15
64115;BME280;62188;35.640;139.748;2024-01-15T03:38:10;100730.34;;;17.81;16.05
64115;BME280;62188;35.640;139.748;2024-01-15T03:40:35;100728.42;;;17.63;16.28
64115;BME280;62188;35.640;139.748;2024-01-15T03:43:01;100736.94;;;14.66;17.70
64115;BME280;62188;35.640;139.748;2024-01-15T03:45:26;100722.34;;;14.14;17.79
64115;BME280;62188;35.640;139.748;2024-01-15T03:47:52;100731.20;;;14.25;18.29
64115;BME280;62188;35.640;139.748;2024-01-15T03:50:17;100730.69;;;14.05;18.64
64115;BME280;62188;35.640;139.748;2024-01-15T03:52:45;100729.08;;;14.19;18.36
64115;BME280;62188;35.640;139.748;2024-01-15T03:55:09;100721.89;;;13.58;18.70
64115;BME280;62188;35.640;139.748;2024-01-15T03:57:39;100708.50;;;12.85;19.34
64115;BME280;62188;35.640;139.748;2024-01-15T04:00:03;100719.25;;;12.00;20.25
64115;BME280;62188;35.640;139.748;2024-01-15T04:02:25;100721.50;;;12.41;20.09
64115;BME280;62188;35.640;139.748;2024-01-15T04:04:51;100717.28;;;12.75;19.92
64115;BME280;62188;35.640;139.748;2024-01-15T04:07:16;100715.69;;;12.79;20.45
64115;BME280;62188;35.640;139.748;2024-01-15T04:09:42;100723.73;;;12.42;20.21
64115;BME280;62188;35.640;139.748;2024-01-15T04:12:08;100722.80;;;11.87;20.51
64115;BME280;62188;35.640;139.748;2024-01-15T04:14:33;100723.00;;;11.55;20.65
64115;BME280;62188;35.640;139.748;2024-01-15T04:16:59;100715.58;;;10.84;20.91
64115;BME280;62188;35.640;139.748;2024-01-15T04:19:25;100717.55;;;11.46;20.78
64115;BME280;62188;35.640;139.748;2024-01-15T04:21:51;100722.41;;;10.77;21.32
64115;BME280;62188;35.640;139.748;2024-01-15T04:24:17;100716.93;;;11.03;21.44
64115;BME280;62188;35.640;139.748;2024-01-15T04:26:41;100710.92;;;11.21;20.87
64115;BME280;62188;35.640;139.748;2024-01-15T04:29:09;100714.83;;;11.75;20.89
64115;BME280;62188;35.640;139.748;2024-01-15T04:31:32;100699.62;;;12.69;20.39
64115;BME280;62188;35.640;139.748;2024-01-15T04:33:58;100703.31;;;13.20;19.49
64115;BME280;62188;35.640;139.748;2024-01-15T04:36:24;100701.28;;;14.36;18.74
64115;BME280;62188;35.640;139.748;2024-01-15T04:38:51;100701.65;;;15.52;18.44
64115;BME280;62188;35.640;139.748;2024-01-15T04:41:21;100694.18;;;16.75;17.21
64115;BME280;62188;35.640;139.748;2024-01-15T04:43:42;100706.64;;;17.05;16.77
64115;BME280;62188;35.640;139.748;2024-01-15T04:46:07;100703.23;;;15.67;16.33
64115;BME280;62188;35.640;139.748;2024-01-15T04:48:32;100700.74;;;16.16;15.91
64115;BME280;62188;35.640;139.748;2024-01-15T04:50:57;100698.44;;;15.74;15.72
64115;BME280;62188;35.640;139.748;2024-01-15T04:53:23;100708.31;;;15.80;15.87
64115;BME280;62188;35.640;139.748;2024-01-15T04:55:49;100705.68;;;13.87;16.56
64115;BME280;62188;35.640;139.748;2024-01-15T04:58:13;100717.18;;;13.68;17.60
64115;BME280;62188;35.640;139.748;2024-01-15T05:00:41;100723.61;;;13.70;17.55
64115;BME280;62188;35.640;139.748;2024-01-15T05:03:05;100714.23;;;12.13;18.36
64115;BME280;62188;35.640;139.748;2024-01-15T05:05:31;100720.18;;;12.22;18.55
64115;BME280;62188;35.640;139.748;2024-01-15T05:07:57;100706.80;;;11.40;18.56
64115;BME280;62188;35.640;139.748;2024-01-15T05:10:24;100712.23;;;12.16;18.90
64115;BME280;62188;35.640;139.748;2024-01-15T05:12:48;100716.54;;;12.44;18.99
64115;BME280;62188;35.640;139.748;2024-01-15T05:15:13;100715.84;;;11.87;18.73
64115;BME280;62188;35.640;139.748;2024-01-15T05:17:39;100710.18;;;11.37;18.88
64115;BME280;62188;35.640;139.748;2024-01-15T05:20:04;100714.74;;;11.73;19.00
64115;BME280;62188;35.640;139.748;2024-01-15T05:22:29;100716.31;;;11.48;19.43
64115;BME280;62188;35.640;139.748;2024-01-15T05:24:56;100720.60;;;11.00;19.54
64115;BME280;62188;35.640;139.748;2024-01-15T05:27:25;100727.65;;;10.99;19.75
64115;BME280;62188;35.640;139.748;2024-01-15T05:29:47;100731.31;;;10.15;19.73
64115;BME280;62188;35.640;139.748;2024-01-15T05:32:12;100720.65;;;10.66;19.73
64115;BME280;62188;35.640;139.748;2024-01-15T05:34:37;100722.78;;;10.50;19.79
64115;BME280;62188;35.640;139.748;2024-01-15T05:37:04;100726.94;;;10.41;19.93
64115;BME280;62188;35.640;139.748;2024-01-15T05:39:28;100720.71;;;10.39;20.27
64115;BME280;62188;35.640;139.748;2024-01-15T05:41:55;100717.66;;;10.63;20.00
64115;BME280;62188;35.640;139.748;2024-01-15T05:44:20;100715.74;;;10.43;19.90
64115;BME280;62188;35.640;139.748;2024-01-15T05:46:47;100722.33;;;10.43;19.98
64115;BME280;62188;35.640;139.748;2024-01-15T05:49:12;100729.00;;;10.02;20.16
64115;BME280;62188;35.640;139.748;2024-01-15T05:51:39;100728.71;;;9.81;20.19
64115;BME280;62188;35.640;139.748;2024-01-15T05:54:02;100731.52;;;9.67;20.28
64115;BME280;62188;35.640;139.748;2024-01-15T05:56:27;100738.85;;;9.77;20.30
64115;BME280;62188;35.640;139.748;2024-01-15T05:58:54;100738.13;;;10.23;20.22
64115;BME280;62188;35.640;139.748;2024-01-15T06:01:19;100742.25;;;9.72;19.96
64115;BME280;62188;35.640;139.748;2024-01-15T06:03:46;100746.29;;;9.82;20.15
64115;BME280;62188;35.640;139.748;2024-01-15T06:06:11;100738.33;;;9.59;20.07
64115;BME280;62188;35.640;139.748;2024-01-15T06:08:35;100750.26;;;9.53;20.20
64115;BME280;62188;35.640;139.748;2024-01-15T06:11:03;100760.61;;;9.87;20.07
64115;BME280;62188;35.640;139.748;2024-01-15T06:13:27;100754.86;;;9.59;20.12
64115;BME280;62188;35.640;139.748;2024-01-15T06:15:53;100762.08;;;9.67;20.04
64115;BME280;62188;35.640;139.748;2024-01-15T06:18:19;100756.89;;;9.16;20.07
64115;BME280;62188;35.640;139.748;2024-01-15T06:20:44;100762.41;;;9.53;20.22
64115;BME280;62188;35.640;139.748;2024-01-15T06:23:10;100761.16;;;9.37;20.49
64115;BME280;62188;35.640;139.748;2024-01-15T06:25:37;100758.42;;;9.16;20.45
64115;BME280;62188;35.640;139.748;2024-01-15T06:28:04;100769.17;;;8.19;21.05
64115;BME280;62188;35.640;139.748;2024-01-15T06:30:28;100779.33;;;8.29;20.98
64115;BME280;62188;35.640;139.748;2024-01-15T06:32:54;100797.98;;;8.69;21.08
64115;BME280;62188;35.640;139.748;2024-01-15T06:35:18;100788.22;;;8.03;20.94
64115;BME280;62188;35.640;139.748;2024-01-15T06:37:43;100787.94;;;7.88;21.09
64115;BME280;62188;35.640;139.748;2024-01-15T06:40:11;100801.48;;;8.74;20.95
64115;BME280;62188;35.640;139.748;2024-01-15T06:42:35;100792.13;;;8.75;20.87
64115;BME280;62188;35.640;139.748;2024-01-15T06:45:02;100805.57;;;8.30;20.85
64115;BME280;62188;35.640;139.748;2024-01-15T06:47:26;100814.69;;;7.84;21.30
64115;BME280;62188;35.640;139.748;2024-01-15T06:49:55;100819.50;;;8.12;21.24
64115;BME280;62188;35.640;139.748;2024-01-15T06:52:20;100824.70;;;8.36;21.19
64115;BME280;62188;35.640;139.748;2024-01-15T06:54:43;100827.47;;;8.09;21.25
64115;BME280;62188;35.640;139.748;2024-01-15T06:57:09;100815.78;;;7.72;21.58
64115;BME280;62188;35.640;139.748;2024-01-15T06:59:35;100821.19;;;7.94;21.53
64115;BME280;62188;35.640;139.748;2024-01-15T07:02:00;100832.82;;;8.32;21.74
64115;BME280;62188;35.640;139.748;2024-01-15T07:04:27;100831.91;;;7.41;21.80
64115;BME280;62188;35.640;139.748;2024-01-15T07:06:51;100837.81;;;7.40;21.83
64115;BME280;62188;35.640;139.748;2024-01-15T07:09:18;100846.23;;;7.44;21.77
64115;BME280;62188;35.640;139.748;2024-01-15T07:11:46;100843.14;;;7.03;21.54
64115;BME280;62188;35.640;139.748;2024-01-15T07:14:09;100852.20;;;7.46;21.78
64115;BME280;62188;35.640;139.748;2024-01-15T07:16:34;100849.44;;;6.68;21.88
64115;BME280;62188;35.640;139.748;2024-01-15T07:19:01;100844.32;;;6.82;21.88
64115;BME280;62188;35.640;139.748;2024-01-15T07:21:27;100851.34;;;6.95;21.97
64115;BME280;62188;35.640;139.748;2024-01-15T07:23:51;100854.02;;;7.31;21.66
64115;BME280;62188;35.640;139.748;2024-01-15T07:26:17;100855.57;;;7.85;21.90
64115;BME280;62188;35.640;139.748;2024-01-15T07:28:43;100865.03;;;8.06;21.37
64115;BME280;62188;35.640;139.748;2024-01-15T07:31:09;100873.31;;;7.69;21.39
64115;BME280;62188;35.640;139.748;2024-01-15T07:33:35;100871.63;;;7.86;21.27
64115;BME280;62188;35.640;139.748;2024-01-15T07:36:01;100881.09;;;7.91;21.64
64115;BME280;62188;35.640;139.748;2024-01-15T07:38:27;100879.49;;;8.03;21.30
64115;BME280;62188;35.640;139.748;2024-01-15T07:40:51;100886.58;;;8.07;20.84
64115;BME280;62188;35.640;139.748;2024-01-15T07:43:17;100902.40;;;8.34;21.21
64115;BME280;62188;35.640;139.748;2024-01-15T07:45:42;100904.47;;;8.26;20.88
64115;BME280;62188;35.640;139.748;2024-01-15T07:48:11;100897.15;;;8.58;20.84
64115;BME280;62188;35.640;139.748;2024-01-15T07:50:33;100908.73;;;8.33;20.67
64115;BME280;62188;35.640;139.748;2024-01-15T07:53:01;100888.82;;;8.50;20.93
64115;BME280;62188;35.640;139.748;2024-01-15T07:55:25;100907.86;;;7.49;20.85
64115;BME280;62188;35.640;139.748;2024-01-15T07:57:51;100909.93;;;7.76;21.33
64115;BME280;62188;35.640;139.748;2024-01-15T08:00:17;100908.23;;;7.11;21.33
64115;BME280;62188;35.640;139.748;2024-01-15T08:02:43;100918.06;;;7.34;21.25
64115;BME280;62188;35.640;139.748;2024-01-15T08:05:08;100916.76;;;6.56;21.37
64115;BME280;62188;35.640;139.748;2024-01-15T08:07:33;100926.08;;;7.73;21.12
64115;BME280;62188;35.640;139.748;2024-01-15T08:10:01;100934.89;;;7.08;21.00
64115;BME280;62188;35.640;139.748;2024-01-15T08:12:26;100926.62;;;7.15;21.08
64115;BME280;62188;35.640;139.748;2024-01-15T08:14:51;100938.09;;;7.44;21.19
64115;BME280;62188;35.640;139.748;2024-01-15T08:17:17;100937.61;;;7.50;21.41
64115;BME280;62188;35.640;139.748;2024-01-15T08:19:44;100936.66;;;7.62;21.13
64115;BME280;62188;35.640;139.748;2024-01-15T08:22:08;100933.66;;;8.03;21.19
64115;BME280;62188;35.640;139.748;2024-01-15T08:24:33;100928.74;;;8.34;21.08
64115;BME280;62188;35.640;139.748;2024-01-15T08:27:00;100949.05;;;7.61;21.22
64115;BME280;62188;35.640;139.748;2024-01-15T08:29:25;100949.60;;;7.64;20.99
64115;BME280;62188;35.640;139.748;2024-01-15T08:31:51;100952.49;;;6.83;21.38
64115;BME280;62188;35.640;139.748;2024-01-15T08:34:18;100958.05;;;7.25;21.44
64115;BME280;62188;35.640;139.748;2024-01-15T08:36:42;100958.21;;;7.21;21.44
64115;BME280;62188;35.640;139.748;2024-01-15T08:39:07;100970.17;;;6.90;21.58
64115;BME280;62188;35.640;139.748;2024-01-15T08:41:35;100975.27;;;6.74;21.46
64115;BME280;62188;35.640;139.748;2024-01-15T08:43:59;100976.29;;;7.32;21.33
64115;BME280;62188;35.640;139.748;2024-01-15T08:46:27;100971.45;;;7.51;21.60
64115;BME280;62188;35.640;139.748;2024-01-15T08:48:51;100987.69;;;7.90;21.30
64115;BME280;62188;35.640;139.748;2024-01-15T08:51:17;100991.49;;;7.08;21.11
64115;BME280;62188;35.640;139.748;2024-01-15T08:53:41;100992.40;;;7.77;20.87
64115;BME280;62188;35.640;139.748;2024-01-15T08:56:07;100992.51;;;7.17;20.91
64115;BME280;62188;35.640;139.748;2024-01-15T08:58:34;100996.08;;;7.10;21.10
64115;BME280;62188;35.640;139.748;2024-01-15T09:00:59;100990.90;;;6.70;21.29
64115;BME280;62188;35.640;139.748;2024-01-15T09:03:27;100987.02;;;6.57;21.57
64115;BME280;62188;35.640;139.748;2024-01-15T09:05:52;100999.22;;;7.23;21.87
64115;BME280;62188;35.640;139.748;2024-01-15T09:08:16;101001.15;;;7.63;21.51
64115;BME280;62188;35.640;139.748;2024-01-15T09:10:43;100995.16;;;7.66;21.70
64115;BME280;62188;35.640;139.748;2024-01-15T09:13:07;101006.82;;;7.24;21.36
64115;BME280;62188;35.640;139.748;2024-01-15T09:15:33;100999.33;;;6.28;21.55
64115;BME280;62188;35.640;139.748;2024-01-15T09:17:59;101000.86;;;6.15;21.57
64115;BME280;62188;35.640;139.748;2024-01-15T09:20:25;101014.47;;;6.84;21.57
64115;BME280;62188;35.640;139.748;2024-01-15T09:22:50;100998.03;;;5.81;21.98
64115;BME280;62188;35.640;139.748;2024-01-15T09:25:16;101019.97;;;5.48;22.25
64115;BME280;62188;35.640;139.748;2024-01-15T09:27:42;101018.76;;;6.32;22.09
64115;BME280;62188;35.640;139.748;2024-01-15T09:30:09;101023.69;;;6.07;22.17
64115;BME280;62188;35.640;139.748;2024-01-15T09:32:34;101029.79;;;6.04;21.90
64115;BME280;62188;35.640;139.748;2024-01-15T09:34:59;101024.40;;;6.44;22.21
64115;BME280;62188;35.640;139.748;2024-01-15T09:37:25;101015.49;;;6.70;21.99
64115;BME280;62188;35.640;139.748;2024-01-15T09:39:53;101033.16;;;6.59;21.90
64115;BME280;62188;35.640;139.748;2024-01-15T09:42:18;101033.44;;;6.58;22.31
64115;BME280;62188;35.640;139.748;2024-01-15T09:44:43;101021.46;;;6.82;21.82
64115;BME280;62188;35.640;139.748;2024-01-15T09:47:08;101027.95;;;6.72;21.69
64115;BME280;62188;35.640;139.748;2024-01-15T09:49:33;101027.45;;;7.38;22.06
64115;BME280;62188;35.640;139.748;2024-01-15T09:52:02;101030.90;;;6.55;21.43
64115;BME280;62188;35.640;139.748;2024-01-15T09:54:25;101031.48;;;6.88;21.66
64115;BME280;62188;35.640;139.748;2024-01-15T09:56:50;101042.35;;;7.31;21.83
64115;BME280;62188;35.640;139.748;2024-01-15T09:59:19;101011.14;;;6.06;22.04
64115;BME280;62188;35.640;139.748;2024-01-15T10:01:43;101038.54;;;6.02;22.43
64115;BME280;62188;35.640;139.748;2024-01-15T10:04:10;101039.63;;;5.79;22.31
64115;BME280;62188;35.640;139.748;2024-01-15T10:06:34;101042.06;;;6.10;22.32
64115;BME280;62188;35.640;139.748;2024-01-15T10:09:00;101050.43;;;5.76;22.54
64115;BME280;62188;35.640;139.748;2024-01-15T10:11:26;101030.94;;;5.86;22.83
64115;BME280;62188;35.640;139.748;2024-01-15T10:13:51;101044.13;;;5.54;22.95
64115;BME280;62188;35.640;139.748;2024-01-15T10:16:16;101035.29;;;5.58;22.90
64115;BME280;62188;35.640;139.748;2024-01-15T10:18:44;101041.36;;;5.76;22.86
64115;BME280;62188;35.640;139.748;2024-01-15T10:21:09;101048.75;;;5.72;22.64
64115;BME280;62188;35.640;139.748;2024-01-15T10:23:34;101038.95;;;5.36;22.72
64115;BME280;62188;35.640;139.748;2024-01-15T10:26:00;101046.61;;;5.88;22.66
64115;BME280;62188;35.640;139.748;2024-01-15T10:28:27;101043.26;;;6.03;22.73
64115;BME280;62188;35.640;139.748;2024-01-15T10:30:55;101045.78;;;6.36;22.02
64115;BME280;62188;35.640;139.748;2024-01-15T10:33:22;101047.09;;;6.25;21.76
64115;BME280;62188;35.640;139.748;2024-01-15T10:35:43;101053.40;;;6.50;21.65
64115;BME280;62188;35.640;139.748;2024-01-15T10:38:08;101054.39;;;6.59;21.75
64115;BME280;62188;35.640;139.748;2024-01-15T10:40:34;101076.56;;;5.77;22.35
64115;BME280;62188;35.640;139.748;2024-01-15T10:43:01;101078.67;;;5.97;21.87
64115;BME280;62188;35.640;139.748;2024-01-15T10:45:28;101076.98;;;6.08;22.00
64115;BME280;62188;35.640;139.748;2024-01-15T10:48:02;101082.94;;;5.82;22.48
64115;BME280;62188;35.640;139.748;2024-01-15T10:50:19;101075.53;;;5.65;22.54
64115;BME280;62188;35.640;139.748;2024-01-15T10:52:43;101084.45;;;5.83;22.68
64115;BME280;62188;35.640;139.748;2024-01-15T10:55:10;101066.96;;;5.03;22.50
64115;BME280;62188;35.640;139.748;2024-01-15T10:57:35;101088.83;;;5.58;22.53
64115;BME280;62188;35.640;139.748;2024-01-15T11:00:03;101085.25;;;4.61;22.88
64115;BME280;62188;35.640;139.748;2024-01-15T11:02:26;101079.61;;;5.13;22.75
64115;BME280;62188;35.640;139.748;2024-01-15T11:04:51;101082.67;;;5.31;22.82
64115;BME280;62188;35.640;139.748;2024-01-15T11:07:18;101082.23;;;5.26;22.59
64115;BME280;62188;35.640;139.748;2024-01-15T11:09:43;101100.30;;;5.70;22.15
64115;BME280;62188;35.640;139.748;2024-01-15T11:12:10;101091.48;;;5.93;22.15
64115;BME280;62188;35.640;139.748;2024-01-15T11:14:40;101084.79;;;5.40;22.28
64115;BME280;62188;35.640;139.748;2024-01-15T11:17:00;101100.44;;;5.66;22.01
64115;BME280;62188;35.640;139.748;2024-01-15T11:19:27;101089.92;;;5.77;21.98
64115;BME280;62188;35.640;139.748;2024-01-15T11:21:52;101099.30;;;6.01;22.26
64115;BME280;62188;35.640;139.748;2024-01-15T11:26:48;101102.77;;;6.24;22.50
64115;BME280;62188;35.640;139.748;2024-01-15T11:34:01;101108.17;;;5.97;24.95
64115;BME280;62188;35.640;139.748;2024-01-15T11:38:53;101117.76;;;4.79;22.69
64115;BME280;62188;35.640;139.748;2024-01-15T11:41:17;101114.81;;;5.16;24.26
64115;BME280;62188;35.640;139.748;2024-01-15T11:43:43;101119.80;;;5.97;23.21
64115;BME280;62188;35.640;139.748;2024-01-15T11:46:12;101126.87;;;5.64;22.58
64115;BME280;62188;35.640;139.748;2024-01-15T11:48:43;101128.28;;;5.09;22.34
64115;BME280;62188;35.640;139.748;2024-01-15T11:51:01;101130.76;;;5.99;22.64
64115;BME280;62188;35.640;139.748;2024-01-15T11:53:34;101134.73;;;5.95;22.33
64115;BME280;62188;35.640;139.748;2024-01-15T11:55:52;101138.65;;;5.74;21.98
64115;BME280;62188;35.640;139.748;2024-01-15T11:58:17;101123.30;;;5.63;21.73
64115;BME280;62188;35.640;139.748;2024-01-15T12:00:47;101142.42;;;5.53;22.16
64115;BME280;62188;35.640;139.748;2024-01-15T12:03:10;101144.85;;;5.28;22.18
64115;BME280;62188;35.640;139.748;2024-01-15T12:05:36;101147.60;;;5.58;22.30
64115;BME280;62188;35.640;139.748;2024-01-15T12:08:02;101149.76;;;6.06;22.03
64115;BME280;62188;35.640;139.748;2024-01-15T12:10:26;101148.76;;;6.06;22.42
64115;BME280;62188;35.640;139.748;2024-01-15T12:12:59;101142.54;;;5.85;22.13
64115;BME280;62188;35.640;139.748;2024-01-15T12:15:18;101159.48;;;6.00;21.46
64115;BME280;62188;35.640;139.748;2024-01-15T12:17:43;101173.07;;;5.29;21.43
64115;BME280;62188;35.640;139.748;2024-01-15T12:20:10;101169.14;;;5.78;21.41
64115;BME280;62188;35.640;139.748;2024-01-15T12:22:35;101169.70;;;5.48;21.26
64115;BME280;62188;35.640;139.748;2024-01-15T12:25:01;101166.25;;;5.50;21.23
64115;BME280;62188;35.640;139.748;2024-01-15T12:27:27;101172.82;;;5.72;21.48
64115;BME280;62188;35.640;139.748;2024-01-15T12:29:53;101172.77;;;5.91;21.65
64115;BME280;62188;35.640;139.748;2024-01-15T12:32:20;101175.49;;;5.49;21.26
64115;BME280;62188;35.640;139.748;2024-01-15T12:34:44;101176.64;;;5.18;21.68
64115;BME280;62188;35.640;139.748;2024-01-15T12:37:10;101166.98;;;4.74;21.55